sensor_id;sensor_type;location;lat;lon;timestamp;P1;durP1;ratioP1;P2;durP2;ratioP2
5898;SDS011;2975;50.956;6.962;2024-02-26T00:01:57;1.60;;;1.03;;
5898;SDS011;2975;50.956;6.962;2024-02-26T00:04:22;1.73;;;1.20;;
5898;SDS011;2975;50.956;6.962;2024-02-26T00:06:49;2.20;;;1.30;;
5898;SDS011;2975;50.956;6.962;2024-02-26T00:09:19;1.37;;;1.00;;
5898;SDS011;2975;50.956;6.962;2024-02-26T00:11:45;2.40;;;1.23;;
5898;SDS011;2975;50.956;6.962;2024-02-26T00:14:13;3.00;;;0.97;;
5898;SDS011;2975;50.956;6.962;2024-02-26T00:16:40;1.57;;;1.00;;
5898;SDS011;2975;50.956;6.962;2024-02-26T00:19:07;1.07;;;0.90;;
5898;SDS011;2975;50.956;6.962;2024-02-26T00:21:39;1.17;;;0.90;;
5898;SDS011;2975;50.956;6.962;2024-02-26T00:24:08;1.10;;;1.00;;
5898;SDS011;2975;50.956;6.962;2024-02-26T00:26:34;1.23;;;1.00;;
5898;SDS011;2975;50.956;6.962;2024-02-26T00:29:01;2.70;;;0.90;;
5898;SDS011;2975;50.956;6.962;2024-02-26T00:31:29;1.23;;;1.00;;
5898;SDS011;2975;50.956;6.962;2024-02-26T00:33:57;0.87;;;0.87;;
5898;SDS011;2975;50.956;6.962;2024-02-26T00:36:26;1.70;;;0.80;;
5898;SDS011;2975;50.956;6.962;2024-02-26T00:38:55;0.77;;;0.77;;
5898;SDS011;2975;50.956;6.962;2024-02-26T00:41:22;3.00;;;0.93;;
5898;SDS011;2975;50.956;6.962;2024-02-26T00:43:50;2.00;;;1.17;;
5898;SDS011;2975;50.956;6.962;2024-02-26T00:46:15;0.80;;;0.80;;
5898;SDS011;2975;50.956;6.962;2024-02-26T00:48:43;0.83;;;0.83;;
5898;SDS011;2975;50.956;6.962;2024-02-26T00:51:08;0.70;;;0.70;;
5898;SDS011;2975;50.956;6.962;2024-02-26T00:53:38;0.80;;;0.70;;
5898;SDS011;2975;50.956;6.962;2024-02-26T00:56:06;0.87;;;0.63;;
5898;SDS011;2975;50.956;6.962;2024-02-26T00:58:35;0.70;;;0.70;;
5898;SDS011;2975;50.956;6.962;2024-02-26T01:01:04;1.60;;;1.07;;
5898;SDS011;2975;50.956;6.962;2024-02-26T01:03:33;1.30;;;0.77;;
5898;SDS011;2975;50.956;6.962;2024-02-26T01:06:00;1.03;;;0.63;;
5898;SDS011;2975;50.956;6.962;2024-02-26T01:08:28;0.70;;;0.70;;
5898;SDS011;2975;50.956;6.962;2024-02-26T01:10:57;0.80;;;0.80;;
5898;SDS011;2975;50.956;6.962;2024-02-26T01:13:25;0.87;;;0.87;;
5898;SDS011;2975;50.956;6.962;2024-02-26T01:15:51;1.17;;;0.80;;
5898;SDS011;2975;50.956;6.962;2024-02-26T01:18:16;2.17;;;0.80;;
5898;SDS011;2975;50.956;6.962;2024-02-26T01:20:42;1.73;;;0.90;;
5898;SDS011;2975;50.956;6.962;2024-02-26T01:23:12;1.07;;;0.90;;
5898;SDS011;2975;50.956;6.962;2024-02-26T01:25:39;0.50;;;0.50;;
5898;SDS011;2975;50.956;6.962;2024-02-26T01:28:09;0.63;;;0.63;;
5898;SDS011;2975;50.956;6.962;2024-02-26T01:30:38;1.27;;;0.80;;
5898;SDS011;2975;50.956;6.962;2024-02-26T01:33:07;0.93;;;0.60;;
5898;SDS011;2975;50.956;6.962;2024-02-26T01:35:37;0.83;;;0.80;;
5898;SDS011;2975;50.956;6.962;2024-02-26T01:38:06;2.00;;;1.00;;
5898;SDS011;2975;50.956;6.962;2024-02-26T01:40:34;2.93;;;0.90;;
5898;SDS011;2975;50.956;6.962;2024-02-26T01:43:01;0.77;;;0.77;;
5898;SDS011;2975;50.956;6.962;2024-02-26T01:45:27;0.93;;;0.80;;
5898;SDS011;2975;50.956;6.962;2024-02-26T01:47:53;1.03;;;0.73;;
5898;SDS011;2975;50.956;6.962;2024-02-26T01:50:20;0.70;;;0.70;;
5898;SDS011;2975;50.956;6.962;2024-02-26T01:52:50;0.93;;;0.70;;
5898;SDS011;2975;50.956;6.962;2024-02-26T01:55:17;1.43;;;0.70;;
5898;SDS011;2975;50.956;6.962;2024-02-26T01:57:44;0.60;;;0.60;;
5898;SDS011;2975;50.956;6.962;2024-02-26T02:00:12;0.73;;;0.70;;
5898;SDS011;2975;50.956;6.962;2024-02-26T02:02:41;0.73;;;0.73;;
5898;SDS011;2975;50.956;6.962;2024-02-26T02:05:09;1.17;;;0.70;;
5898;SDS011;2975;50.956;6.962;2024-02-26T02:07:37;1.10;;;0.83;;
5898;SDS011;2975;50.956;6.962;2024-02-26T02:10:06;3.03;;;1.00;;
5898;SDS011;2975;50.956;6.962;2024-02-26T02:12:32;0.70;;;0.70;;
5898;SDS011;2975;50.956;6.962;2024-02-26T02:14:59;0.97;;;0.80;;
5898;SDS011;2975;50.956;6.962;2024-02-26T02:17:25;1.00;;;0.87;;
5898;SDS011;2975;50.956;6.962;2024-02-26T02:19:52;1.63;;;0.97;;
5898;SDS011;2975;50.956;6.962;2024-02-26T02:22:19;0.87;;;0.70;;
5898;SDS011;2975;50.956;6.962;2024-02-26T02:24:45;3.97;;;1.00;;
5898;SDS011;2975;50.956;6.962;2024-02-26T02:27:12;0.93;;;0.80;;
5898;SDS011;2975;50.956;6.962;2024-02-26T02:29:38;0.70;;;0.60;;
5898;SDS011;2975;50.956;6.962;2024-02-26T02:32:04;0.90;;;0.90;;
5898;SDS011;2975;50.956;6.962;2024-02-26T02:34:31;2.07;;;1.00;;
5898;SDS011;2975;50.956;6.962;2024-02-26T02:36:59;1.30;;;0.97;;
5898;SDS011;2975;50.956;6.962;2024-02-26T02:39:25;0.80;;;0.80;;
5898;SDS011;2975;50.956;6.962;2024-02-26T02:41:53;2.07;;;0.77;;
5898;SDS011;2975;50.956;6.962;2024-02-26T02:44:20;0.70;;;0.70;;
5898;SDS011;2975;50.956;6.962;2024-02-26T02:46:47;1.00;;;0.67;;
5898;SDS011;2975;50.956;6.962;2024-02-26T02:49:15;0.80;;;0.80;;
5898;SDS011;2975;50.956;6.962;2024-02-26T02:51:42;1.57;;;0.90;;
5898;SDS011;2975;50.956;6.962;2024-02-26T02:54:08;1.17;;;0.80;;
5898;SDS011;2975;50.956;6.962;2024-02-26T02:56:35;0.87;;;0.87;;
5898;SDS011;2975;50.956;6.962;2024-02-26T02:59:02;0.87;;;0.70;;
5898;SDS011;2975;50.956;6.962;2024-02-26T03:01:30;0.90;;;0.80;;
5898;SDS011;2975;50.956;6.962;2024-02-26T03:03:57;1.70;;;0.93;;
5898;SDS011;2975;50.956;6.962;2024-02-26T03:06:23;0.87;;;0.67;;
5898;SDS011;2975;50.956;6.962;2024-02-26T03:08:52;0.87;;;0.70;;
5898;SDS011;2975;50.956;6.962;2024-02-26T03:11:20;0.77;;;0.73;;
5898;SDS011;2975;50.956;6.962;2024-02-26T03:13:47;1.00;;;0.70;;
5898;SDS011;2975;50.956;6.962;2024-02-26T03:16:14;1.40;;;0.77;;
5898;SDS011;2975;50.956;6.962;2024-02-26T03:18:41;1.73;;;0.73;;
5898;SDS011;2975;50.956;6.962;2024-02-26T03:21:07;0.73;;;0.73;;
5898;SDS011;2975;50.956;6.962;2024-02-26T03:23:34;1.03;;;0.80;;
5898;SDS011;2975;50.956;6.962;2024-02-26T03:26:04;1.83;;;1.00;;
5898;SDS011;2975;50.956;6.962;2024-02-26T03:28:31;1.63;;;0.60;;
5898;SDS011;2975;50.956;6.962;2024-02-26T03:30:59;1.10;;;0.90;;
5898;SDS011;2975;50.956;6.962;2024-02-26T03:33:26;0.87;;;0.83;;
5898;SDS011;2975;50.956;6.962;2024-02-26T03:35:53;1.67;;;0.80;;
5898;SDS011;2975;50.956;6.962;2024-02-26T03:38:20;0.80;;;0.80;;
5898;SDS011;2975;50.956;6.962;2024-02-26T03:40:47;1.10;;;1.00;;
5898;SDS011;2975;50.956;6.962;2024-02-26T03:43:14;1.20;;;0.70;;
5898;SDS011;2975;50.956;6.962;2024-02-26T03:45:41;1.17;;;0.60;;
5898;SDS011;2975;50.956;6.962;2024-02-26T03:48:08;0.80;;;0.80;;
5898;SDS011;2975;50.956;6.962;2024-02-26T03:50:34;0.90;;;0.70;;
5898;SDS011;2975;50.956;6.962;2024-02-26T03:53:03;0.73;;;0.67;;
5898;SDS011;2975;50.956;6.962;2024-02-26T03:55:30;0.93;;;0.80;;
5898;SDS011;2975;50.956;6.962;2024-02-26T03:57:57;2.07;;;0.90;;
5898;SDS011;2975;50.956;6.962;2024-02-26T04:00:24;1.03;;;0.73;;
5898;SDS011;2975;50.956;6.962;2024-02-26T04:02:53;0.90;;;0.90;;
5898;SDS011;2975;50.956;6.962;2024-02-26T04:05:20;1.53;;;0.70;;
5898;SDS011;2975;50.956;6.962;2024-02-26T04:07:48;2.00;;;0.80;;
5898;SDS011;2975;50.956;6.962;2024-02-26T04:10:15;0.93;;;0.93;;
5898;SDS011;2975;50.956;6.962;2024-02-26T04:12:42;0.77;;;0.77;;
5898;SDS011;2975;50.956;6.962;2024-02-26T04:15:09;1.27;;;1.17;;
5898;SDS011;2975;50.956;6.962;2024-02-26T04:17:36;0.87;;;0.87;;
5898;SDS011;2975;50.956;6.962;2024-02-26T04:20:04;1.57;;;0.70;;
5898;SDS011;2975;50.956;6.962;2024-02-26T04:22:32;0.60;;;0.60;;
5898;SDS011;2975;50.956;6.962;2024-02-26T04:24:58;4.53;;;1.00;;
5898;SDS011;2975;50.956;6.962;2024-02-26T04:27:25;2.00;;;0.70;;
5898;SDS011;2975;50.956;6.962;2024-02-26T04:29:52;0.60;;;0.60;;
5898;SDS011;2975;50.956;6.962;2024-02-26T04:32:19;0.70;;;0.70;;
5898;SDS011;2975;50.956;6.962;2024-02-26T04:34:46;0.83;;;0.70;;
5898;SDS011;2975;50.956;6.962;2024-02-26T04:37:13;0.90;;;0.80;;
5898;SDS011;2975;50.956;6.962;2024-02-26T04:39:40;0.97;;;0.60;;
5898;SDS011;2975;50.956;6.962;2024-02-26T04:42:07;1.17;;;0.80;;
5898;SDS011;2975;50.956;6.962;2024-02-26T04:44:34;1.20;;;1.10;;
5898;SDS011;2975;50.956;6.962;2024-02-26T04:47:01;1.23;;;0.80;;
5898;SDS011;2975;50.956;6.962;2024-02-26T04:49:28;1.30;;;0.90;;
5898;SDS011;2975;50.956;6.962;2024-02-26T04:51:55;0.73;;;0.73;;
5898;SDS011;2975;50.956;6.962;2024-02-26T04:54:22;1.33;;;0.90;;
5898;SDS011;2975;50.956;6.962;2024-02-26T04:56:49;0.97;;;0.80;;
5898;SDS011;2975;50.956;6.962;2024-02-26T04:59:16;0.70;;;0.70;;
5898;SDS011;2975;50.956;6.962;2024-02-26T05:01:43;1.43;;;0.87;;
5898;SDS011;2975;50.956;6.962;2024-02-26T05:04:10;1.37;;;0.70;;
5898;SDS011;2975;50.956;6.962;2024-02-26T05:06:37;1.07;;;0.90;;
5898;SDS011;2975;50.956;6.962;2024-02-26T05:09:04;2.00;;;0.90;;
5898;SDS011;2975;50.956;6.962;2024-02-26T05:11:31;3.30;;;0.87;;
5898;SDS011;2975;50.956;6.962;2024-02-26T05:13:58;1.27;;;1.07;;
5898;SDS011;2975;50.956;6.962;2024-02-26T05:16:25;1.57;;;0.90;;
5898;SDS011;2975;50.956;6.962;2024-02-26T05:18:55;2.97;;;1.10;;
5898;SDS011;2975;50.956;6.962;2024-02-26T05:21:22;1.77;;;0.80;;
5898;SDS011;2975;50.956;6.962;2024-02-26T05:23:49;0.97;;;0.70;;
5898;SDS011;2975;50.956;6.962;2024-02-26T05:26:20;2.43;;;1.10;;
5898;SDS011;2975;50.956;6.962;2024-02-26T05:28:46;1.53;;;0.80;;
5898;SDS011;2975;50.956;6.962;2024-02-26T05:31:14;1.07;;;0.90;;
5898;SDS011;2975;50.956;6.962;2024-02-26T05:33:41;1.47;;;0.87;;
5898;SDS011;2975;50.956;6.962;2024-02-26T05:36:08;0.97;;;0.97;;
5898;SDS011;2975;50.956;6.962;2024-02-26T05:38:35;0.70;;;0.70;;
5898;SDS011;2975;50.956;6.962;2024-02-26T05:41:02;1.23;;;1.00;;
5898;SDS011;2975;50.956;6.962;2024-02-26T05:43:30;1.10;;;0.63;;
5898;SDS011;2975;50.956;6.962;2024-02-26T05:45:57;0.97;;;0.80;;
5898;SDS011;2975;50.956;6.962;2024-02-26T05:48:24;5.33;;;1.10;;
5898;SDS011;2975;50.956;6.962;2024-02-26T05:50:51;0.87;;;0.87;;
5898;SDS011;2975;50.956;6.962;2024-02-26T05:53:18;0.90;;;0.90;;
5898;SDS011;2975;50.956;6.962;2024-02-26T05:55:45;2.17;;;1.20;;
5898;SDS011;2975;50.956;6.962;2024-02-26T05:58:12;2.83;;;1.00;;
5898;SDS011;2975;50.956;6.962;2024-02-26T06:00:39;2.50;;;1.10;;
5898;SDS011;2975;50.956;6.962;2024-02-26T06:03:07;1.40;;;1.30;;
5898;SDS011;2975;50.956;6.962;2024-02-26T06:05:34;2.13;;;1.23;;
5898;SDS011;2975;50.956;6.962;2024-02-26T06:08:01;1.20;;;1.07;;
5898;SDS011;2975;50.956;6.962;2024-02-26T06:10:29;3.07;;;1.23;;
5898;SDS011;2975;50.956;6.962;2024-02-26T06:12:56;1.10;;;1.00;;
5898;SDS011;2975;50.956;6.962;2024-02-26T06:15:23;1.23;;;0.93;;
5898;SDS011;2975;50.956;6.962;2024-02-26T06:17:49;1.80;;;1.10;;
5898;SDS011;2975;50.956;6.962;2024-02-26T06:20:16;1.93;;;1.23;;
5898;SDS011;2975;50.956;6.962;2024-02-26T06:22:46;1.77;;;1.10;;
5898;SDS011;2975;50.956;6.962;2024-02-26T06:25:12;0.83;;;0.83;;
5898;SDS011;2975;50.956;6.962;2024-02-26T06:27:38;2.87;;;1.10;;
5898;SDS011;2975;50.956;6.962;2024-02-26T06:30:04;1.40;;;1.00;;
5898;SDS011;2975;50.956;6.962;2024-02-26T06:32:30;1.87;;;1.10;;
5898;SDS011;2975;50.956;6.962;2024-02-26T06:34:56;5.37;;;1.30;;
5898;SDS011;2975;50.956;6.962;2024-02-26T06:37:22;1.10;;;1.00;;
5898;SDS011;2975;50.956;6.962;2024-02-26T06:39:48;1.23;;;1.13;;
5898;SDS011;2975;50.956;6.962;2024-02-26T06:42:19;1.33;;;1.23;;
5898;SDS011;2975;50.956;6.962;2024-02-26T06:44:45;1.57;;;1.47;;
5898;SDS011;2975;50.956;6.962;2024-02-26T06:47:13;1.20;;;1.10;;
5898;SDS011;2975;50.956;6.962;2024-02-26T06:49:38;2.77;;;1.10;;
5898;SDS011;2975;50.956;6.962;2024-02-26T06:52:05;1.67;;;1.20;;
5898;SDS011;2975;50.956;6.962;2024-02-26T06:54:31;2.63;;;1.63;;
5898;SDS011;2975;50.956;6.962;2024-02-26T06:56:57;1.70;;;1.60;;
5898;SDS011;2975;50.956;6.962;2024-02-26T06:59:23;2.87;;;1.83;;
5898;SDS011;2975;50.956;6.962;2024-02-26T07:01:49;1.57;;;1.33;;
5898;SDS011;2975;50.956;6.962;2024-02-26T07:04:15;3.07;;;1.40;;
5898;SDS011;2975;50.956;6.962;2024-02-26T07:06:41;3.93;;;1.60;;
5898;SDS011;2975;50.956;6.962;2024-02-26T07:09:09;1.37;;;1.27;;
5898;SDS011;2975;50.956;6.962;2024-02-26T07:11:37;2.63;;;1.50;;
5898;SDS011;2975;50.956;6.962;2024-02-26T07:14:06;1.63;;;1.50;;
5898;SDS011;2975;50.956;6.962;2024-02-26T07:16:34;2.10;;;1.20;;
5898;SDS011;2975;50.956;6.962;2024-02-26T07:19:00;1.63;;;1.43;;
5898;SDS011;2975;50.956;6.962;2024-02-26T07:21:26;2.47;;;1.70;;
5898;SDS011;2975;50.956;6.962;2024-02-26T07:23:52;2.93;;;1.80;;
5898;SDS011;2975;50.956;6.962;2024-02-26T07:26:18;3.30;;;1.50;;
5898;SDS011;2975;50.956;6.962;2024-02-26T07:28:44;1.33;;;1.23;;
5898;SDS011;2975;50.956;6.962;2024-02-26T07:31:10;2.23;;;1.37;;
5898;SDS011;2975;50.956;6.962;2024-02-26T07:33:36;6.63;;;1.60;;
5898;SDS011;2975;50.956;6.962;2024-02-26T07:36:02;1.60;;;1.50;;
5898;SDS011;2975;50.956;6.962;2024-02-26T07:38:28;2.67;;;1.30;;
5898;SDS011;2975;50.956;6.962;2024-02-26T07:40:54;3.83;;;1.20;;
5898;SDS011;2975;50.956;6.962;2024-02-26T07:43:23;1.80;;;1.47;;
5898;SDS011;2975;50.956;6.962;2024-02-26T07:45:49;1.30;;;1.20;;
5898;SDS011;2975;50.956;6.962;2024-02-26T07:48:15;2.13;;;1.43;;
5898;SDS011;2975;50.956;6.962;2024-02-26T07:50:41;1.90;;;1.33;;
5898;SDS011;2975;50.956;6.962;2024-02-26T07:53:07;2.73;;;1.30;;
5898;SDS011;2975;50.956;6.962;2024-02-26T07:55:33;2.73;;;1.30;;
5898;SDS011;2975;50.956;6.962;2024-02-26T07:57:59;4.83;;;1.90;;
5898;SDS011;2975;50.956;6.962;2024-02-26T08:00:25;1.00;;;1.00;;
5898;SDS011;2975;50.956;6.962;2024-02-26T08:02:51;1.80;;;1.40;;
5898;SDS011;2975;50.956;6.962;2024-02-26T08:05:17;2.20;;;1.30;;
5898;SDS011;2975;50.956;6.962;2024-02-26T08:07:44;1.30;;;1.20;;
5898;SDS011;2975;50.956;6.962;2024-02-26T08:10:10;3.10;;;1.50;;
5898;SDS011;2975;50.956;6.962;2024-02-26T08:12:36;2.97;;;1.70;;
5898;SDS011;2975;50.956;6.962;2024-02-26T08:15:02;1.77;;;1.20;;
5898;SDS011;2975;50.956;6.962;2024-02-26T08:17:29;2.27;;;1.20;;
5898;SDS011;2975;50.956;6.962;2024-02-26T08:19:55;1.13;;;1.13;;
5898;SDS011;2975;50.956;6.962;2024-02-26T08:22:24;4.60;;;1.30;;
5898;SDS011;2975;50.956;6.962;2024-02-26T08:24:51;4.63;;;1.57;;
5898;SDS011;2975;50.956;6.962;2024-02-26T08:27:19;2.00;;;1.30;;
5898;SDS011;2975;50.956;6.962;2024-02-26T08:29:46;1.73;;;1.30;;
5898;SDS011;2975;50.956;6.962;2024-02-26T08:32:11;1.37;;;1.20;;
5898;SDS011;2975;50.956;6.962;2024-02-26T08:34:38;1.37;;;1.20;;
5898;SDS011;2975;50.956;6.962;2024-02-26T08:37:04;1.13;;;1.07;;
5898;SDS011;2975;50.956;6.962;2024-02-26T08:39:32;2.77;;;1.13;;
5898;SDS011;2975;50.956;6.962;2024-02-26T08:41:58;2.30;;;1.23;;
5898;SDS011;2975;50.956;6.962;2024-02-26T08:44:23;1.10;;;1.00;;
5898;SDS011;2975;50.956;6.962;2024-02-26T08:46:49;1.80;;;1.27;;
5898;SDS011;2975;50.956;6.962;2024-02-26T08:49:15;2.00;;;1.67;;
5898;SDS011;2975;50.956;6.962;2024-02-26T08:51:42;1.43;;;1.30;;
5898;SDS011;2975;50.956;6.962;2024-02-26T08:54:08;1.97;;;1.50;;
5898;SDS011;2975;50.956;6.962;2024-02-26T08:56:34;3.13;;;1.20;;
5898;SDS011;2975;50.956;6.962;2024-02-26T08:59:01;2.27;;;1.67;;
5898;SDS011;2975;50.956;6.962;2024-02-26T09:01:28;6.40;;;1.40;;
5898;SDS011;2975;50.956;6.962;2024-02-26T09:03:55;1.00;;;1.00;;
5898;SDS011;2975;50.956;6.962;2024-02-26T09:06:21;2.40;;;2.20;;
5898;SDS011;2975;50.956;6.962;2024-02-26T09:08:47;1.70;;;1.60;;
5898;SDS011;2975;50.956;6.962;2024-02-26T09:11:14;2.90;;;1.30;;
5898;SDS011;2975;50.956;6.962;2024-02-26T09:13:40;1.97;;;1.30;;
5898;SDS011;2975;50.956;6.962;2024-02-26T09:16:06;2.40;;;1.37;;
5898;SDS011;2975;50.956;6.962;2024-02-26T09:18:32;2.83;;;1.50;;
5898;SDS011;2975;50.956;6.962;2024-02-26T09:20:59;2.20;;;1.50;;
5898;SDS011;2975;50.956;6.962;2024-02-26T09:23:25;3.77;;;1.70;;
5898;SDS011;2975;50.956;6.962;2024-02-26T09:25:52;2.83;;;1.40;;
5898;SDS011;2975;50.956;6.962;2024-02-26T09:28:19;2.13;;;1.50;;
5898;SDS011;2975;50.956;6.962;2024-02-26T09:30:46;4.50;;;2.43;;
5898;SDS011;2975;50.956;6.962;2024-02-26T09:33:15;2.23;;;1.90;;
5898;SDS011;2975;50.956;6.962;2024-02-26T09:35:42;1.93;;;1.50;;
5898;SDS011;2975;50.956;6.962;2024-02-26T09:38:09;1.70;;;1.60;;
5898;SDS011;2975;50.956;6.962;2024-02-26T09:40:35;2.30;;;1.73;;
5898;SDS011;2975;50.956;6.962;2024-02-26T09:43:02;1.77;;;1.60;;
5898;SDS011;2975;50.956;6.962;2024-02-26T09:45:30;1.73;;;1.60;;
5898;SDS011;2975;50.956;6.962;2024-02-26T09:47:57;1.70;;;1.60;;
5898;SDS011;2975;50.956;6.962;2024-02-26T09:50:25;3.30;;;1.87;;
5898;SDS011;2975;50.956;6.962;2024-02-26T09:52:51;3.30;;;1.50;;
5898;SDS011;2975;50.956;6.962;2024-02-26T09:55:18;3.53;;;1.60;;
5898;SDS011;2975;50.956;6.962;2024-02-26T09:57:45;2.53;;;1.50;;
5898;SDS011;2975;50.956;6.962;2024-02-26T10:00:15;1.80;;;1.50;;
5898;SDS011;2975;50.956;6.962;2024-02-26T10:02:45;4.33;;;1.70;;
5898;SDS011;2975;50.956;6.962;2024-02-26T10:05:16;2.43;;;1.60;;
5898;SDS011;2975;50.956;6.962;2024-02-26T10:07:45;3.80;;;1.40;;
5898;SDS011;2975;50.956;6.962;2024-02-26T10:10:16;2.10;;;1.47;;
5898;SDS011;2975;50.956;6.962;2024-02-26T10:12:43;1.63;;;1.47;;
5898;SDS011;2975;50.956;6.962;2024-02-26T10:15:09;1.50;;;1.40;;
5898;SDS011;2975;50.956;6.962;2024-02-26T10:17:34;3.33;;;1.47;;
5898;SDS011;2975;50.956;6.962;2024-02-26T10:20:12;1.97;;;1.73;;
5898;SDS011;2975;50.956;6.962;2024-02-26T10:22:48;3.13;;;1.73;;
5898;SDS011;2975;50.956;6.962;2024-02-26T10:25:14;2.77;;;1.63;;
5898;SDS011;2975;50.956;6.962;2024-02-26T10:27:41;1.80;;;1.70;;
5898;SDS011;2975;50.956;6.962;2024-02-26T10:30:17;2.10;;;1.60;;
5898;SDS011;2975;50.956;6.962;2024-02-26T10:32:46;3.57;;;2.17;;
5898;SDS011;2975;50.956;6.962;2024-02-26T10:35:16;2.43;;;1.60;;
5898;SDS011;2975;50.956;6.962;2024-02-26T10:37:48;2.13;;;1.80;;
5898;SDS011;2975;50.956;6.962;2024-02-26T10:40:15;2.67;;;1.80;;
5898;SDS011;2975;50.956;6.962;2024-02-26T10:42:41;3.73;;;1.57;;
5898;SDS011;2975;50.956;6.962;2024-02-26T10:45:08;4.87;;;3.37;;
5898;SDS011;2975;50.956;6.962;2024-02-26T10:47:35;1.60;;;1.50;;
5898;SDS011;2975;50.956;6.962;2024-02-26T10:50:02;3.80;;;2.00;;
5898;SDS011;2975;50.956;6.962;2024-02-26T10:52:29;2.30;;;2.10;;
5898;SDS011;2975;50.956;6.962;2024-02-26T10:54:57;1.93;;;1.50;;
5898;SDS011;2975;50.956;6.962;2024-02-26T10:57:36;4.50;;;1.80;;
5898;SDS011;2975;50.956;6.962;2024-02-26T11:00:04;2.00;;;1.73;;
5898;SDS011;2975;50.956;6.962;2024-02-26T11:02:36;3.33;;;1.73;;
5898;SDS011;2975;50.956;6.962;2024-02-26T11:05:02;2.67;;;1.80;;
5898;SDS011;2975;50.956;6.962;2024-02-26T11:07:35;2.70;;;1.80;;
5898;SDS011;2975;50.956;6.962;2024-02-26T11:10:02;4.80;;;2.20;;
5898;SDS011;2975;50.956;6.962;2024-02-26T11:12:32;2.73;;;1.60;;
5898;SDS011;2975;50.956;6.962;2024-02-26T11:15:02;2.70;;;2.17;;
5898;SDS011;2975;50.956;6.962;2024-02-26T11:17:28;4.43;;;2.00;;
5898;SDS011;2975;50.956;6.962;2024-02-26T11:19:58;2.80;;;1.93;;
5898;SDS011;2975;50.956;6.962;2024-02-26T11:22:25;1.97;;;1.70;;
5898;SDS011;2975;50.956;6.962;2024-02-26T11:24:52;4.57;;;1.80;;
5898;SDS011;2975;50.956;6.962;2024-02-26T11:27:19;2.23;;;1.90;;
5898;SDS011;2975;50.956;6.962;2024-02-26T11:29:51;2.53;;;1.67;;
5898;SDS011;2975;50.956;6.962;2024-02-26T11:32:19;4.67;;;1.83;;
5898;SDS011;2975;50.956;6.962;2024-02-26T11:34:44;3.00;;;1.67;;
5898;SDS011;2975;50.956;6.962;2024-02-26T11:37:11;2.13;;;1.80;;
5898;SDS011;2975;50.956;6.962;2024-02-26T11:39:40;3.70;;;2.20;;
5898;SDS011;2975;50.956;6.962;2024-02-26T11:42:09;1.80;;;1.37;;
5898;SDS011;2975;50.956;6.962;2024-02-26T11:44:41;2.87;;;2.00;;
5898;SDS011;2975;50.956;6.962;2024-02-26T11:47:41;2.47;;;1.70;;
5898;SDS011;2975;50.956;6.962;2024-02-26T11:50:16;3.30;;;2.07;;
5898;SDS011;2975;50.956;6.962;2024-02-26T11:59:08;2.50;;;1.70;;
5898;SDS011;2975;50.956;6.962;2024-02-26T12:01:42;2.07;;;1.70;;
5898;SDS011;2975;50.956;6.962;2024-02-26T12:04:22;2.50;;;1.93;;
5898;SDS011;2975;50.956;6.962;2024-02-26T12:09:34;2.33;;;2.10;;
5898;SDS011;2975;50.956;6.962;2024-02-26T12:12:07;2.97;;;2.07;;
5898;SDS011;2975;50.956;6.962;2024-02-26T12:14:34;4.10;;;2.10;;
5898;SDS011;2975;50.956;6.962;2024-02-26T12:17:04;2.07;;;1.80;;
5898;SDS011;2975;50.956;6.962;2024-02-26T12:19:32;3.90;;;2.80;;
5898;SDS011;2975;50.956;6.962;2024-02-26T12:22:04;4.77;;;2.37;;
5898;SDS011;2975;50.956;6.962;2024-02-26T12:24:33;3.13;;;2.40;;
5898;SDS011;2975;50.956;6.962;2024-02-26T12:26:58;2.83;;;1.90;;
5898;SDS011;2975;50.956;6.962;2024-02-26T12:29:24;2.00;;;1.80;;
5898;SDS011;2975;50.956;6.962;2024-02-26T12:31:51;3.97;;;2.23;;
5898;SDS011;2975;50.956;6.962;2024-02-26T12:34:16;2.37;;;1.70;;
5898;SDS011;2975;50.956;6.962;2024-02-26T12:36:42;5.27;;;2.23;;
5898;SDS011;2975;50.956;6.962;2024-02-26T12:39:08;2.53;;;1.80;;
5898;SDS011;2975;50.956;6.962;2024-02-26T12:41:34;1.93;;;1.83;;
5898;SDS011;2975;50.956;6.962;2024-02-26T12:44:01;2.70;;;1.93;;
5898;SDS011;2975;50.956;6.962;2024-02-26T12:46:26;3.37;;;2.10;;
5898;SDS011;2975;50.956;6.962;2024-02-26T12:48:55;3.20;;;2.40;;
5898;SDS011;2975;50.956;6.962;2024-02-26T12:51:23;3.57;;;2.20;;
5898;SDS011;2975;50.956;6.962;2024-02-26T12:53:49;2.93;;;1.80;;
5898;SDS011;2975;50.956;6.962;2024-02-26T12:56:17;2.20;;;2.00;;
5898;SDS011;2975;50.956;6.962;2024-02-26T12:58:43;2.50;;;1.90;;
5898;SDS011;2975;50.956;6.962;2024-02-26T13:01:14;3.33;;;2.03;;
5898;SDS011;2975;50.956;6.962;2024-02-26T13:03:41;2.67;;;1.87;;
5898;SDS011;2975;50.956;6.962;2024-02-26T13:06:09;1.90;;;1.80;;
5898;SDS011;2975;50.956;6.962;2024-02-26T13:08:35;3.53;;;1.90;;
5898;SDS011;2975;50.956;6.962;2024-02-26T13:11:01;3.70;;;2.20;;
5898;SDS011;2975;50.956;6.962;2024-02-26T13:13:27;1.93;;;1.73;;
5898;SDS011;2975;50.956;6.962;2024-02-26T13:16:06;2.40;;;1.90;;
5898;SDS011;2975;50.956;6.962;2024-02-26T13:18:40;3.20;;;2.40;;
5898;SDS011;2975;50.956;6.962;2024-02-26T13:21:09;3.47;;;2.37;;
5898;SDS011;2975;50.956;6.962;2024-02-26T13:23:37;4.27;;;2.07;;
5898;SDS011;2975;50.956;6.962;2024-02-26T13:26:04;4.83;;;2.33;;
5898;SDS011;2975;50.956;6.962;2024-02-26T13:28:30;2.87;;;2.17;;
5898;SDS011;2975;50.956;6.962;2024-02-26T13:30:56;3.77;;;2.10;;
5898;SDS011;2975;50.956;6.962;2024-02-26T13:33:24;3.03;;;2.33;;
5898;SDS011;2975;50.956;6.962;2024-02-26T13:35:51;3.33;;;2.13;;
5898;SDS011;2975;50.956;6.962;2024-02-26T13:38:17;3.73;;;2.50;;
5898;SDS011;2975;50.956;6.962;2024-02-26T13:40:43;3.70;;;2.10;;
5898;SDS011;2975;50.956;6.962;2024-02-26T13:43:09;3.57;;;2.07;;
5898;SDS011;2975;50.956;6.962;2024-02-26T13:45:36;4.23;;;2.23;;
5898;SDS011;2975;50.956;6.962;2024-02-26T13:48:03;4.07;;;2.73;;
5898;SDS011;2975;50.956;6.962;2024-02-26T13:50:30;3.73;;;2.10;;
5898;SDS011;2975;50.956;6.962;2024-02-26T13:52:56;4.37;;;2.20;;
5898;SDS011;2975;50.956;6.962;2024-02-26T13:55:25;3.00;;;2.27;;
5898;SDS011;2975;50.956;6.962;2024-02-26T13:57:53;3.20;;;2.17;;
5898;SDS011;2975;50.956;6.962;2024-02-26T14:00:19;2.53;;;2.07;;
5898;SDS011;2975;50.956;6.962;2024-02-26T14:02:45;2.73;;;2.47;;
5898;SDS011;2975;50.956;6.962;2024-02-26T14:05:11;4.70;;;2.47;;
5898;SDS011;2975;50.956;6.962;2024-02-26T14:07:37;5.43;;;2.33;;
5898;SDS011;2975;50.956;6.962;2024-02-26T14:10:03;3.93;;;2.67;;
5898;SDS011;2975;50.956;6.962;2024-02-26T14:12:29;5.10;;;2.60;;
5898;SDS011;2975;50.956;6.962;2024-02-26T14:14:56;2.50;;;2.17;;
5898;SDS011;2975;50.956;6.962;2024-02-26T14:17:24;4.87;;;2.77;;
5898;SDS011;2975;50.956;6.962;2024-02-26T14:19:50;3.67;;;2.53;;
5898;SDS011;2975;50.956;6.962;2024-02-26T14:22:16;4.20;;;2.30;;
5898;SDS011;2975;50.956;6.962;2024-02-26T14:24:42;3.43;;;2.43;;
5898;SDS011;2975;50.956;6.962;2024-02-26T14:27:09;3.07;;;2.33;;
5898;SDS011;2975;50.956;6.962;2024-02-26T14:29:39;4.00;;;3.10;;
5898;SDS011;2975;50.956;6.962;2024-02-26T14:32:06;4.60;;;2.80;;
5898;SDS011;2975;50.956;6.962;2024-02-26T14:34:32;4.83;;;3.07;;
5898;SDS011;2975;50.956;6.962;2024-02-26T14:36:58;3.97;;;2.77;;
5898;SDS011;2975;50.956;6.962;2024-02-26T14:39:23;4.13;;;2.73;;
5898;SDS011;2975;50.956;6.962;2024-02-26T14:41:49;5.67;;;2.97;;
5898;SDS011;2975;50.956;6.962;2024-02-26T14:44:14;4.03;;;3.00;;
5898;SDS011;2975;50.956;6.962;2024-02-26T14:46:41;7.93;;;2.93;;
5898;SDS011;2975;50.956;6.962;2024-02-26T14:49:07;4.30;;;3.40;;
5898;SDS011;2975;50.956;6.962;2024-02-26T14:51:32;4.83;;;3.63;;
5898;SDS011;2975;50.956;6.962;2024-02-26T14:53:58;5.73;;;3.50;;
5898;SDS011;2975;50.956;6.962;2024-02-26T14:56:28;5.63;;;3.47;;
5898;SDS011;2975;50.956;6.962;2024-02-26T14:58:53;5.67;;;3.93;;
5898;SDS011;2975;50.956;6.962;2024-02-26T15:01:19;6.20;;;3.90;;
5898;SDS011;2975;50.956;6.962;2024-02-26T15:03:44;5.73;;;4.00;;
5898;SDS011;2975;50.956;6.962;2024-02-26T15:06:11;5.67;;;4.03;;
5898;SDS011;2975;50.956;6.962;2024-02-26T15:08:36;7.43;;;4.10;;
5898;SDS011;2975;50.956;6.962;2024-02-26T15:11:02;5.40;;;4.00;;
5898;SDS011;2975;50.956;6.962;2024-02-26T15:13:28;5.80;;;4.63;;
5898;SDS011;2975;50.956;6.962;2024-02-26T15:15:53;6.57;;;4.27;;
5898;SDS011;2975;50.956;6.962;2024-02-26T15:18:19;7.10;;;4.23;;
5898;SDS011;2975;50.956;6.962;2024-02-26T15:20:45;6.20;;;4.53;;
5898;SDS011;2975;50.956;6.962;2024-02-26T15:23:11;6.90;;;4.70;;
5898;SDS011;2975;50.956;6.962;2024-02-26T15:25:37;7.47;;;4.43;;